Weather at Oserian Naivasha Airport

Public forecast

Using degrees Celsius for public forecast. Weather courtesy of forecast.io.

Closest aviation weather report (METAR) to Oserian Naivasha Airport

Report is more than 6 hours old.

Closest report is Narok Airport, 33.3 nm (61.7 km) WSW. Retrieved 2016/10/15 19:00 UTC (6 years ago):

HKNO 151900Z 11003KT 9999 FEW019 20/09

Closest aviation forecast (TAF) to Oserian Naivasha Airport

Closest forecast is Nairobi Wilson Airport, 43.3 nm (80.1 km) SE. Retrieved 2022/08/12 06:27 UTC (2 hours ago):

TAF HKNW 120500Z 1206/1306 11010KT 9999 BKN023 BECMG 1300/1304 18005KT FEW008 BKN015